Aviation Digital Data Service (ADDS)

Output produced by METARs form (1825 UTC 16 August 2018)
found at http://www.aviationweather.gov/adds/metars/
 
ESSA 161750Z 17013KT CAVOK 21/15 Q1014 NOSIG
TAF ESSA 161730Z 1618/1718 18012KT CAVOK 
     TEMPO 1710/1715 18015G25KT 
     BECMG 1715/1717 27008KT 
     TEMPO 1717/1718 VRB15G32KT 2000 TSRA BKN045CB
       
ESNX 161820Z AUTO 16011KT 9999 SCT052/// BKN075/// 16/12 Q1008
ESCF 161750Z AUTO 17006KT 9999 SCT068/// 22/15 Q1013
ESCM 161750Z AUTO 18009KT 9999 BKN074/// 21/16 Q1013
ESDF 161750Z 17006KT CAVOK 21/18 Q1016
TAF ESDF 161730Z 1618/1621 18006KT CAVOK
       
ESGG 161820Z 20014KT CAVOK 20/15 Q1012
TAF ESGG 161730Z 1618/1718 21012KT 9999 SCT030 
     PROB40 1701/1709 BKN008 
     TEMPO 1709/1714 RA BKN008 BKN030CB
       
ESGJ 161820Z 18006KT CAVOK 21/16 Q1013
TAF ESGJ 161730Z 1618/1701 18006KT CAVOK
       
ESGR 161750Z AUTO 17008KT 9999 BKN068/// 22/14 Q1012
ESGT 161820Z 19011KT 9999 FEW037 OVC059 21/16 Q1011
TAF ESGT 161730Z 1618/1621 20014KT 9999 SCT035
       
ESIA 161750Z 19005KT CAVOK 20/17 Q1012
ESIB 161750Z AUTO 20010KT 9999 OVC060/// 21/16 Q1011
ESKM 161750Z AUTO 16010KT 9999 FEW025/// SCT048/// BKN064/// 19/15 Q1009
ESKN 161750Z 16007KT CAVOK 21/17 Q1014
TAF ESKN 161730Z 1618/1718 18006KT CAVOK 
     TEMPO 1715/1718 30015G30KT 4000 TSRA BKN040CB
       
ESMK 161820Z AUTO 13005KT 9999 NCD 21/16 Q1015
TAF ESMK 161402Z 1615/1619 20012KT 9999 SCT030
       
ESMQ 161820Z AUTO 18010KT 9999 NCD 20/18 Q1016
TAF ESMQ 161430Z 1615/1619 18015KT CAVOK
       
ESMS 161820Z 14007KT CAVOK 21/17 Q1015
TAF ESMS 161659Z 1618/1718 15012KT 9999 FEW040 
     BECMG 1700/1702 VRB02KT 
     BECMG 1711/1714 30012KT 
     TEMPO 1715/1718 3000 SHRA BKN012 SCT040CB 
     PROB40 
     TEMPO 1715/1718 TSRA
       
ESMT 161820Z 19011KT CAVOK 22/16 Q1013
TAF ESMT 161654Z 1618/1621 19014KT 9999 SCT040 
     BECMG 1618/1620 17004KT
       
ESMX 161820Z 16007KT CAVOK 21/15 Q1015
TAF ESMX 161430Z 1615/1619 18009KT 9999 SCT035 BKN050
       
ESND 161750Z AUTO 17007KT 110V210 9999 SCT030/// OVC062/// 19/13 Q1008
ESNG 161750Z AUTO 14008KT 9999 SCT014/// BKN096/// 15/13 Q1007
ESNK 161750Z 15010KT CAVOK 20/14 Q1009
TAF ESNK 161730Z 1618/1620 16010KT CAVOK
       
ESNL 161820Z 13011KT 9999 FEW021 BKN047 17/13 Q1008
ESNN 161750Z 14010KT 9999 SCT047 OVC061 18/15 Q1009
TAF ESNN 161730Z 1618/1701 14012KT 9999 SCT040
       
ESNO 161750Z 17009KT 9999 BKN009 OVC090 17/15 Q1010
TAF AMD ESNO 161752Z 1618/1622 18011KT 9999 SCT009 BKN050 
     PROB40 1618/1620 BKN009
       
ESNQ 161750Z AUTO 18012KT 9999 OVC011/// 14/12 Q1006
ESNS 161750Z 17008KT 140V200 9999 FEW016 SCT040 BKN055 18/15 Q1010
TAF ESNS 161730Z 1618/1622 18009KT 9999 FEW012 BKN025 
     PROB40 1618/1619 BKN009
       
ESNU 161750Z 18013KT 9999 SCT012 OVC060 18/15 Q1011
TAF ESNU 161730Z 1618/1703 18012KT 9999 SCT012 
     TEMPO 1618/1619 BKN009 
     PROB40 1619/1621 BKN012
       
ESNV 161750Z AUTO 16010KT 9999 SCT038/// OVC053/// 17/12 Q1006
ESNX 161820Z AUTO 16011KT 9999 SCT052/// BKN075/// 16/12 Q1008
ESNZ 161750Z 17014KT 9999 BKN040 18/13 Q1005
TAF ESNZ 161730Z 1618/1622 18014KT 9999 BKN040 
     PROB40 1618/1622 17015G25KT
       
ESOE 161750Z 19010KT CAVOK 21/17 Q1012
TAF ESOE 161730Z 1618/1624 18008KT CAVOK
       
ESOK 161750Z 17012KT CAVOK 20/15 Q1010
TAF ESOK 161730Z 1618/1621 18008KT 9999 SCT035
       
ESOW 161750Z AUTO 19011G21KT 9999 BKN043/// OVC068/// 23/15 Q1013
ESPA 161750Z 18012KT CAVOK 16/14 Q1010
TAF ESPA 161730Z 1618/1623 18012KT CAVOK
       
ESPE 161750Z AUTO 18008KT 150V230 9999 BKN062/// BKN120/// 18/13 Q1008
ESSA 161750Z 17013KT CAVOK 21/15 Q1014 NOSIG
TAF ESSA 161730Z 1618/1718 18012KT CAVOK 
     TEMPO 1710/1715 18015G25KT 
     BECMG 1715/1717 27008KT 
     TEMPO 1717/1718 VRB15G32KT 2000 TSRA BKN045CB
       
ESSB 161750Z 16009KT 130V200 CAVOK 21/16 Q1014
TAF ESSB 161730Z 1618/1620 18008KT CAVOK
       
ESSD 161750Z 18011KT 150V220 CAVOK 20/16 Q1011
TAF ESSD 161430Z 1615/1619 18010KT 9999 BKN035
       
ESSL 161750Z 18006KT CAVOK 22/15 Q1013
TAF ESSL 161730Z 1618/1622 20006KT CAVOK
       
ESSP 161750Z AUTO 18006KT 140V210 9999 BKN076/// 23/15 Q1013
ESST 161750Z 14008KT 9999 SCT037 BKN049 OVC062 19/16 Q1009
ESSV 161750Z 18012KT CAVOK 20/16 Q1016
TAF ESSV 161730Z 1618/1622 18012KT CAVOK
       
ESTA 161820Z 16009KT CAVOK 23/14 Q1014
TAF ESTA 161654Z 1618/1622 17015KT 9999 SCT040 
     BECMG 1618/1620 16005KT
       
ESTL 161820Z AUTO 16007KT 9999 NCD 22/15 Q1014
ESUP 161750Z AUTO 14007KT 9999 OVC041/// 15/// Q1010 RERA
ESUT 161820Z AUTO 16010KT 9999 -DZ BKN018/// OVC023/// 14/13 Q1003
ESSD 161750Z 18011KT 150V220 CAVOK 20/16 Q1011
TAF ESSD 161430Z 1615/1619 18010KT 9999 BKN035
       
ESSB 161750Z 16009KT 130V200 CAVOK 21/16 Q1014
TAF ESSB 161730Z 1618/1620 18008KT CAVOK
       
ESNG 161750Z AUTO 14008KT 9999 SCT014/// BKN096/// 15/13 Q1007
ESMT 161820Z 19011KT CAVOK 22/16 Q1013
TAF ESMT 161654Z 1618/1621 19014KT 9999 SCT040 
     BECMG 1618/1620 17004KT
       
ESUT 161820Z AUTO 16010KT 9999 -DZ BKN018/// OVC023/// 14/13 Q1003
ESGJ 161820Z 18006KT CAVOK 21/16 Q1013
TAF ESGJ 161730Z 1618/1701 18006KT CAVOK
       
ESPA 161750Z 18012KT CAVOK 16/14 Q1010
TAF ESPA 161730Z 1618/1623 18012KT CAVOK
       
ESMQ 161820Z AUTO 18010KT 9999 NCD 20/18 Q1016
TAF ESMQ 161430Z 1615/1619 18015KT CAVOK
       
ESIA 161750Z 19005KT CAVOK 20/17 Q1012
ESOK 161750Z 17012KT CAVOK 20/15 Q1010
TAF ESOK 161730Z 1618/1621 18008KT 9999 SCT035
       
ESNQ 161750Z AUTO 18012KT 9999 OVC011/// 14/12 Q1006
ESNK 161750Z 15010KT CAVOK 20/14 Q1009
TAF ESNK 161730Z 1618/1620 16010KT CAVOK
       
ESMK 161820Z AUTO 13005KT 9999 NCD 21/16 Q1015
TAF ESMK 161402Z 1615/1619 20012KT 9999 SCT030
       
ESMX 161820Z 16007KT CAVOK 21/15 Q1015
TAF ESMX 161430Z 1615/1619 18009KT 9999 SCT035 BKN050
       
ESSP 161750Z AUTO 18006KT 140V210 9999 BKN076/// 23/15 Q1013
ESGG 161820Z 20014KT CAVOK 20/15 Q1012
TAF ESGG 161730Z 1618/1718 21012KT 9999 SCT030 
     PROB40 1701/1709 BKN008 
     TEMPO 1709/1714 RA BKN008 BKN030CB
       
ESTL 161820Z AUTO 16007KT 9999 NCD 22/15 Q1014
ESNL 161820Z 13011KT 9999 FEW021 BKN047 17/13 Q1008
ESCF 161750Z AUTO 17006KT 9999 SCT068/// 22/15 Q1013
ESKM 161750Z AUTO 16010KT 9999 FEW025/// SCT048/// BKN064/// 19/15 Q1009
ESOE 161750Z 19010KT CAVOK 21/17 Q1012
TAF ESOE 161730Z 1618/1624 18008KT CAVOK
       
ESNO 161750Z 17009KT 9999 BKN009 OVC090 17/15 Q1010
TAF AMD ESNO 161752Z 1618/1622 18011KT 9999 SCT009 BKN050 
     PROB40 1618/1620 BKN009
       
ESUP 161750Z AUTO 14007KT 9999 OVC041/// 15/// Q1010 RERA
ESDF 161750Z 17006KT CAVOK 21/18 Q1016
TAF ESDF 161730Z 1618/1621 18006KT CAVOK
       
ESSL 161750Z 18006KT CAVOK 22/15 Q1013
TAF ESSL 161730Z 1618/1622 20006KT CAVOK
       
ESIB 161750Z AUTO 20010KT 9999 OVC060/// 21/16 Q1011
ESKN 161750Z 16007KT CAVOK 21/17 Q1014
TAF ESKN 161730Z 1618/1718 18006KT CAVOK 
     TEMPO 1715/1718 30015G30KT 4000 TSRA BKN040CB
       
ESNS 161750Z 17008KT 140V200 9999 FEW016 SCT040 BKN055 18/15 Q1010
TAF ESNS 161730Z 1618/1622 18009KT 9999 FEW012 BKN025 
     PROB40 1618/1619 BKN009
       
ESGR 161750Z AUTO 17008KT 9999 BKN068/// 22/14 Q1012
ESMS 161820Z 14007KT CAVOK 21/17 Q1015
TAF ESMS 161659Z 1618/1718 15012KT 9999 FEW040 
     BECMG 1700/1702 VRB02KT 
     BECMG 1711/1714 30012KT 
     TEMPO 1715/1718 3000 SHRA BKN012 SCT040CB 
     PROB40 
     TEMPO 1715/1718 TSRA
       
ESNN 161750Z 14010KT 9999 SCT047 OVC061 18/15 Q1009
TAF ESNN 161730Z 1618/1701 14012KT 9999 SCT040
       
ESND 161750Z AUTO 17007KT 110V210 9999 SCT030/// OVC062/// 19/13 Q1008
ESST 161750Z 14008KT 9999 SCT037 BKN049 OVC062 19/16 Q1009
ESGT 161820Z 19011KT 9999 FEW037 OVC059 21/16 Q1011
TAF ESGT 161730Z 1618/1621 20014KT 9999 SCT035
       
ESNU 161750Z 18013KT 9999 SCT012 OVC060 18/15 Q1011
TAF ESNU 161730Z 1618/1703 18012KT 9999 SCT012 
     TEMPO 1618/1619 BKN009 
     PROB40 1619/1621 BKN012
       
ESCM 161750Z AUTO 18009KT 9999 BKN074/// 21/16 Q1013
ESOW 161750Z AUTO 19011G21KT 9999 BKN043/// OVC068/// 23/15 Q1013
ESPE 161750Z AUTO 18008KT 150V230 9999 BKN062/// BKN120/// 18/13 Q1008
ESNV 161750Z AUTO 16010KT 9999 SCT038/// OVC053/// 17/12 Q1006
ESSV 161750Z 18012KT CAVOK 20/16 Q1016
TAF ESSV 161730Z 1618/1622 18012KT CAVOK